createdAt,value
2022-11-25T00:01:21.583Z,99.90
2022-11-25T00:03:50.158Z,99.90
2022-11-25T00:06:19.646Z,99.90
2022-11-25T00:08:49.842Z,99.90
2022-11-25T00:11:18.364Z,99.90
2022-11-25T00:13:46.712Z,99.90
2022-11-25T00:16:16.324Z,99.90
2022-11-25T00:18:45.223Z,99.90
2022-11-25T00:21:14.489Z,99.90
2022-11-25T00:23:42.303Z,99.90
2022-11-25T00:26:11.503Z,99.90
2022-11-25T00:28:40.253Z,99.90
2022-11-25T00:31:17.737Z,99.90
2022-11-25T00:33:46.130Z,99.90
2022-11-25T00:36:18.116Z,99.90
2022-11-25T00:38:46.242Z,99.90
2022-11-25T00:41:33.209Z,99.90
2022-11-25T00:44:19.793Z,99.90
2022-11-25T00:46:47.678Z,99.90
2022-11-25T00:49:15.762Z,99.90
2022-11-25T00:51:43.768Z,99.90
2022-11-25T00:54:11.814Z,99.90
2022-11-25T00:56:39.801Z,99.90
2022-11-25T00:59:08.056Z,99.90
2022-11-25T01:01:36.198Z,99.90
2022-11-25T01:04:04.858Z,99.90
2022-11-25T01:06:34.632Z,99.90
2022-11-25T01:09:02.757Z,99.90
2022-11-25T01:11:30.848Z,99.90
2022-11-25T01:14:01.345Z,99.90
2022-11-25T01:16:30.332Z,99.90
2022-11-25T01:18:59.456Z,99.90
2022-11-25T01:21:28.712Z,99.90
2022-11-25T01:23:56.787Z,99.90
2022-11-25T01:26:25.567Z,99.90
2022-11-25T01:28:54.483Z,99.90
2022-11-25T01:31:23.747Z,99.90
2022-11-25T01:33:59.962Z,99.90
2022-11-25T01:36:28.259Z,99.90
2022-11-25T01:38:57.333Z,99.90
2022-11-25T01:41:26.147Z,99.90
2022-11-25T01:44:04.216Z,99.90
2022-11-25T01:46:40.127Z,99.90
2022-11-25T01:49:09.502Z,99.90
2022-11-25T01:51:42.072Z,99.90
2022-11-25T01:54:11.706Z,99.90
2022-11-25T01:56:42.646Z,99.90
2022-11-25T01:59:10.647Z,99.90
2022-11-25T02:01:39.491Z,99.90
2022-11-25T02:04:08.089Z,99.90
2022-11-25T02:06:39.181Z,99.90
2022-11-25T02:09:08.904Z,99.90
2022-11-25T02:11:39.280Z,99.90
2022-11-25T02:14:07.529Z,99.90
2022-11-25T02:16:35.580Z,99.90
2022-11-25T02:19:04.095Z,99.90
2022-11-25T02:21:37.043Z,99.90
2022-11-25T02:24:12.608Z,99.90
2022-11-25T02:26:40.569Z,99.90
2022-11-25T02:29:09.484Z,99.90
2022-11-25T02:31:40.408Z,99.90
2022-11-25T02:34:10.056Z,99.90
2022-11-25T02:36:38.158Z,99.90
2022-11-25T02:39:07.691Z,99.90
2022-11-25T02:41:39.653Z,99.90
2022-11-25T02:44:08.511Z,99.90
2022-11-25T02:46:36.774Z,99.90
2022-11-25T02:49:09.253Z,99.90
2022-11-25T02:51:39.057Z,99.90
2022-11-25T02:54:07.002Z,99.90
2022-11-25T02:56:35.652Z,99.90
2022-11-25T02:59:04.146Z,99.90
2022-11-25T03:01:32.549Z,99.90
2022-11-25T03:04:00.450Z,99.90
2022-11-25T03:06:29.211Z,99.90
2022-11-25T03:08:57.602Z,99.90
2022-11-25T03:11:47.817Z,99.90
2022-11-25T03:14:17.282Z,99.90
2022-11-25T03:16:45.413Z,99.90
2022-11-25T03:19:13.568Z,99.90
2022-11-25T03:21:41.499Z,99.90
2022-11-25T03:24:09.402Z,99.90
2022-11-25T03:26:37.333Z,99.90
2022-11-25T03:29:05.211Z,99.90
2022-11-25T03:31:35.333Z,99.90
2022-11-25T03:34:03.754Z,99.90
2022-11-25T03:36:32.544Z,99.90
2022-11-25T03:39:00.652Z,99.90
2022-11-25T03:41:29.180Z,99.90
2022-11-25T03:43:57.406Z,99.90
2022-11-25T03:46:25.463Z,99.90
2022-11-25T03:48:55.400Z,99.90
2022-11-25T03:51:24.401Z,99.90
2022-11-25T03:53:53.292Z,99.90
2022-11-25T03:56:23.351Z,99.90
2022-11-25T03:58:51.657Z,99.90
2022-11-25T04:01:21.046Z,99.90
2022-11-25T04:03:48.972Z,99.90
2022-11-25T04:06:19.144Z,99.90
2022-11-25T04:08:49.220Z,99.90
2022-11-25T04:11:17.228Z,99.90
2022-11-25T04:13:49.014Z,99.90
2022-11-25T04:16:19.968Z,99.90
2022-11-25T04:18:48.143Z,99.90
2022-11-25T04:21:16.144Z,99.90
2022-11-25T04:23:44.777Z,99.90
2022-11-25T04:26:14.636Z,99.90
2022-11-25T04:28:42.745Z,99.90
2022-11-25T04:31:11.376Z,99.90
2022-11-25T04:33:42.770Z,99.90
2022-11-25T04:36:11.440Z,99.90
2022-11-25T04:38:39.410Z,99.90
2022-11-25T04:41:08.578Z,99.90
2022-11-25T04:43:41.020Z,99.90
2022-11-25T04:46:17.813Z,99.90
2022-11-25T04:48:51.567Z,99.90
2022-11-25T04:51:21.135Z,99.90
2022-11-25T04:53:53.567Z,99.90
2022-11-25T04:56:24.010Z,99.90
2022-11-25T04:59:13.146Z,99.90
2022-11-25T05:01:45.387Z,99.90
2022-11-25T05:04:29.460Z,99.90
2022-11-25T05:06:57.421Z,99.90
2022-11-25T05:09:26.384Z,99.90
2022-11-25T05:12:16.198Z,99.90
2022-11-25T05:14:44.809Z,99.90
2022-11-25T05:17:17.352Z,99.90
2022-11-25T05:19:46.489Z,99.90
2022-11-25T05:22:21.048Z,99.90
2022-11-25T05:24:49.075Z,99.90
2022-11-25T05:27:17.280Z,99.90
2022-11-25T05:29:45.181Z,99.90
2022-11-25T05:32:14.235Z,99.90
2022-11-25T05:34:43.493Z,99.90
2022-11-25T05:37:13.211Z,99.90
2022-11-25T05:39:47.671Z,99.90
2022-11-25T05:42:29.830Z,99.90
2022-11-25T05:45:02.306Z,99.90
2022-11-25T05:47:31.963Z,99.90
2022-11-25T05:50:00.749Z,99.90
2022-11-25T05:52:30.079Z,99.90
2022-11-25T05:55:01.241Z,99.90
2022-11-25T05:57:29.705Z,99.90
2022-11-25T06:00:04.784Z,99.90
2022-11-25T06:02:52.985Z,99.90
2022-11-25T06:05:22.652Z,99.90
2022-11-25T06:07:51.986Z,99.90
2022-11-25T06:10:22.065Z,99.90
2022-11-25T06:12:50.757Z,99.90
2022-11-25T06:15:18.669Z,99.90
2022-11-25T06:17:46.773Z,99.90
2022-11-25T06:20:20.316Z,99.90
2022-11-25T06:22:48.261Z,99.90
2022-11-25T06:25:21.729Z,99.90
2022-11-25T06:28:11.760Z,99.90
2022-11-25T06:30:39.532Z,99.90
2022-11-25T06:33:17.705Z,99.90
2022-11-25T06:35:47.783Z,99.90
2022-11-25T06:38:15.724Z,99.90
2022-11-25T06:40:43.633Z,99.90
2022-11-25T06:43:11.472Z,99.90
2022-11-25T06:45:39.576Z,99.90
2022-11-25T06:48:07.575Z,99.90
2022-11-25T06:50:35.541Z,99.90
2022-11-25T06:53:03.518Z,99.90
2022-11-25T06:55:31.418Z,99.90
2022-11-25T06:58:20.596Z,99.90
2022-11-25T07:00:47.763Z,99.90
2022-11-25T07:03:15.647Z,99.90
2022-11-25T07:05:43.579Z,99.90
2022-11-25T07:08:11.612Z,99.90
2022-11-25T07:10:39.568Z,99.90
2022-11-25T07:13:07.433Z,99.90
2022-11-25T07:15:35.350Z,99.90
2022-11-25T07:18:03.323Z,99.90
2022-11-25T07:20:31.280Z,99.90
2022-11-25T07:22:59.171Z,99.90
2022-11-25T07:25:30.683Z,99.90
2022-11-25T07:28:00.142Z,99.90
2022-11-25T07:33:15.996Z,99.90
2022-11-25T07:35:43.938Z,99.90
2022-11-25T07:38:11.792Z,99.90
2022-11-25T07:40:40.376Z,99.90
2022-11-25T07:43:08.373Z,99.90
2022-11-25T07:45:36.261Z,99.90
2022-11-25T07:48:09.306Z,99.90
2022-11-25T07:50:37.211Z,99.90
2022-11-25T07:53:05.200Z,99.90
2022-11-25T07:55:33.063Z,99.90
2022-11-25T07:58:00.930Z,99.90
2022-11-25T08:00:28.849Z,99.90
2022-11-25T08:02:56.789Z,99.90
2022-11-25T08:05:24.877Z,99.90
2022-11-25T08:07:52.820Z,99.90
2022-11-25T08:10:20.850Z,99.90
2022-11-25T08:12:48.860Z,99.90
2022-11-25T08:15:17.045Z,99.90
2022-11-25T08:17:44.952Z,99.90
2022-11-25T08:20:13.125Z,99.90
2022-11-25T08:22:41.008Z,99.90
2022-11-25T08:25:08.989Z,99.90
2022-11-25T08:27:37.059Z,99.90
2022-11-25T08:30:05.746Z,99.90
2022-11-25T08:32:37.394Z,99.90
2022-11-25T08:35:06.018Z,99.90
2022-11-25T08:37:34.461Z,99.90
2022-11-25T08:40:02.492Z,99.90
2022-11-25T08:42:30.457Z,99.90
2022-11-25T08:44:58.534Z,99.90
2022-11-25T08:47:26.467Z,99.90
2022-11-25T08:49:54.978Z,99.90
2022-11-25T08:52:23.341Z,99.90
2022-11-25T08:54:51.231Z,99.90
2022-11-25T08:57:19.138Z,99.90
2022-11-25T08:59:47.239Z,99.90
2022-11-25T09:02:16.345Z,99.90
2022-11-25T09:04:44.466Z,99.90
2022-11-25T09:07:12.584Z,99.90
2022-11-25T09:09:40.692Z,99.90
2022-11-25T09:12:08.700Z,99.90
2022-11-25T09:14:36.664Z,99.90
2022-11-25T09:17:09.474Z,99.90
2022-11-25T09:19:39.538Z,99.90
2022-11-25T09:22:08.054Z,99.90
2022-11-25T09:24:37.299Z,99.90
2022-11-25T09:27:05.548Z,99.90
2022-11-25T09:29:33.766Z,99.90
2022-11-25T09:32:02.750Z,99.90
2022-11-25T09:34:30.770Z,99.90
2022-11-25T09:36:58.742Z,99.90
2022-11-25T09:39:30.047Z,99.90
2022-11-25T09:42:36.234Z,99.90
2022-11-25T09:45:33.059Z,99.90
2022-11-25T09:48:03.691Z,99.90
2022-11-25T09:50:34.976Z,99.90
2022-11-25T09:53:07.368Z,99.90
2022-11-25T09:55:42.945Z,99.90
2022-11-25T09:58:10.849Z,99.90
2022-11-25T10:00:42.942Z,99.90
2022-11-25T10:03:27.854Z,99.90
2022-11-25T10:06:14.648Z,99.90
2022-11-25T10:08:45.085Z,99.90
2022-11-25T10:11:25.261Z,99.90
2022-11-25T10:13:56.440Z,99.90
2022-11-25T10:16:33.271Z,96.60
2022-11-25T10:19:22.139Z,95.00
2022-11-25T10:21:50.601Z,94.60
2022-11-25T10:24:19.021Z,96.00
2022-11-25T10:26:51.730Z,93.60
2022-11-25T10:29:24.543Z,89.70
2022-11-25T10:31:57.066Z,82.40
2022-11-25T10:34:28.939Z,78.30
2022-11-25T10:36:57.641Z,76.90
2022-11-25T10:39:28.362Z,73.40
2022-11-25T10:42:03.934Z,70.90
2022-11-25T10:44:31.982Z,68.80
2022-11-25T10:47:18.444Z,68.20
2022-11-25T10:49:55.682Z,64.70
2022-11-25T10:52:24.348Z,52.90
2022-11-25T10:55:13.452Z,55.70
2022-11-25T10:57:41.932Z,59.80
2022-11-25T11:00:25.261Z,60.60
2022-11-25T11:02:54.108Z,66.80
2022-11-25T11:05:27.323Z,71.70
2022-11-25T11:08:17.432Z,74.90
2022-11-25T11:10:51.610Z,74.90
2022-11-25T11:13:25.672Z,74.40
2022-11-25T11:15:54.886Z,74.60
2022-11-25T11:18:30.720Z,77.30
2022-11-25T11:21:00.220Z,82.90
2022-11-25T11:23:29.336Z,86.50
2022-11-25T11:26:02.216Z,89.40
2022-11-25T11:28:31.154Z,87.90
2022-11-25T11:31:01.620Z,81.60
2022-11-25T11:33:32.961Z,79.10
2022-11-25T11:36:24.367Z,73.10
2022-11-25T11:38:57.910Z,70.40
2022-11-25T11:41:44.590Z,59.50
2022-11-25T11:44:15.496Z,59.10
2022-11-25T11:46:52.610Z,61.70
2022-11-25T11:49:39.704Z,55.10
2022-11-25T11:52:30.654Z,53.10
2022-11-25T11:55:03.531Z,51.60
2022-11-25T11:58:01.108Z,54.20
2022-11-25T12:00:33.531Z,52.80
2022-11-25T12:03:15.143Z,53.10
2022-11-25T12:05:43.336Z,56.20
2022-11-25T12:08:18.121Z,58.80
2022-11-25T12:10:54.677Z,52.60
2022-11-25T12:13:27.937Z,55.40
2022-11-25T12:15:58.319Z,58.70
2022-11-25T12:18:29.557Z,55.50
2022-11-25T12:21:05.697Z,53.00
2022-11-25T12:23:41.149Z,55.40
2022-11-25T12:26:32.222Z,59.00
2022-11-25T12:29:02.556Z,54.60
2022-11-25T12:31:37.878Z,58.90
2022-11-25T12:34:17.322Z,60.90
2022-11-25T12:36:47.051Z,61.90
2022-11-25T12:39:24.326Z,64.60
2022-11-25T12:41:55.610Z,66.70
2022-11-25T12:44:25.261Z,65.80
2022-11-25T12:46:56.688Z,63.40
2022-11-25T12:49:43.013Z,59.70
2022-11-25T12:52:30.535Z,64.70
2022-11-25T12:55:10.687Z,70.60
2022-11-25T12:57:43.029Z,71.80
2022-11-25T13:00:43.186Z,75.70
2022-11-25T13:03:16.391Z,78.50
2022-11-25T13:05:44.280Z,80.00
2022-11-25T13:08:12.897Z,80.90
2022-11-25T13:10:48.632Z,82.90
2022-11-25T13:13:28.141Z,83.40
2022-11-25T13:15:57.294Z,85.50
2022-11-25T13:18:28.430Z,86.00
2022-11-25T13:21:04.743Z,87.80
2022-11-25T13:23:47.497Z,88.00
2022-11-25T13:26:32.807Z,89.20
2022-11-25T13:29:01.515Z,88.30
2022-11-25T13:31:33.522Z,88.60
2022-11-25T13:34:21.844Z,89.00
2022-11-25T13:36:50.864Z,89.20
2022-11-25T13:39:19.748Z,89.30
2022-11-25T13:41:49.391Z,89.50
2022-11-25T13:44:28.495Z,90.00
2022-11-25T13:46:58.585Z,90.40
2022-11-25T13:49:26.918Z,90.80
2022-11-25T13:51:56.554Z,91.30
2022-11-25T13:54:30.940Z,91.30
2022-11-25T13:57:17.751Z,91.80
2022-11-25T13:59:50.283Z,91.90
2022-11-25T14:02:27.808Z,92.30
2022-11-25T14:05:11.492Z,92.50
2022-11-25T14:07:58.366Z,93.20
2022-11-25T14:10:52.589Z,93.50
2022-11-25T14:13:38.999Z,94.10
2022-11-25T14:16:27.261Z,94.50
2022-11-25T14:19:50.797Z,94.90
2022-11-25T14:22:04.313Z,95.60
2022-11-25T14:24:41.486Z,96.30
2022-11-25T14:27:21.093Z,96.40
2022-11-25T14:30:09.317Z,97.30
2022-11-25T14:33:01.490Z,97.70
2022-11-25T14:35:55.717Z,98.00
2022-11-25T14:38:25.846Z,98.90
2022-11-25T14:40:58.328Z,99.10
2022-11-25T14:43:27.536Z,99.30
2022-11-25T14:46:12.279Z,99.90
2022-11-25T14:48:40.351Z,99.90
2022-11-25T14:51:14.168Z,99.90
2022-11-25T14:53:48.232Z,99.90
2022-11-25T14:56:22.696Z,99.90
2022-11-25T14:58:54.611Z,99.90
2022-11-25T15:01:24.745Z,99.90
2022-11-25T15:04:11.520Z,99.90
2022-11-25T15:06:41.327Z,99.90
2022-11-25T15:09:23.485Z,99.90
2022-11-25T15:11:59.188Z,99.90
2022-11-25T15:14:32.476Z,99.90
2022-11-25T15:17:00.665Z,99.90
2022-11-25T15:19:33.861Z,99.90
2022-11-25T15:22:23.420Z,99.90
2022-11-25T15:24:55.585Z,99.90
2022-11-25T15:27:26.060Z,99.90
2022-11-25T15:29:55.165Z,99.90
2022-11-25T15:32:27.396Z,99.90
2022-11-25T15:34:56.670Z,99.90
2022-11-25T15:37:24.734Z,99.90
2022-11-25T15:40:11.299Z,99.90
2022-11-25T15:42:42.682Z,99.90
2022-11-25T15:45:11.805Z,99.90
2022-11-25T15:47:39.663Z,99.90
2022-11-25T15:50:10.445Z,99.90
2022-11-25T15:52:40.313Z,99.90
2022-11-25T15:55:17.319Z,99.90
2022-11-25T15:57:49.607Z,99.90
2022-11-25T16:00:18.995Z,99.90
2022-11-25T16:02:46.889Z,99.90
2022-11-25T16:05:15.779Z,99.90
2022-11-25T16:07:50.367Z,99.90
2022-11-25T16:10:27.670Z,99.90
2022-11-25T16:13:19.559Z,99.90
2022-11-25T16:15:53.791Z,99.90
2022-11-25T16:18:39.925Z,99.90
2022-11-25T16:21:10.902Z,99.90
2022-11-25T16:23:42.950Z,99.90
2022-11-25T16:26:16.111Z,99.90
2022-11-25T16:28:50.893Z,99.90
2022-11-25T16:31:19.446Z,99.90
2022-11-25T16:33:47.413Z,99.90
2022-11-25T16:36:15.226Z,99.90
2022-11-25T16:38:43.182Z,99.90
2022-11-25T16:41:17.732Z,99.90
2022-11-25T16:43:45.866Z,99.90
2022-11-25T16:46:18.449Z,99.90
2022-11-25T16:48:46.701Z,99.90
2022-11-25T16:51:16.493Z,99.90
2022-11-25T16:53:45.103Z,99.90
2022-11-25T16:56:15.061Z,99.90
2022-11-25T16:58:44.261Z,99.90
2022-11-25T17:01:17.045Z,99.90
2022-11-25T17:03:45.045Z,99.90
2022-11-25T17:06:20.059Z,99.90
2022-11-25T17:08:52.432Z,99.90
2022-11-25T17:11:24.293Z,99.90
2022-11-25T17:13:53.015Z,99.90
2022-11-25T17:16:22.565Z,99.90
2022-11-25T17:18:52.779Z,99.90
2022-11-25T17:21:21.328Z,99.90
2022-11-25T17:23:53.742Z,99.90
2022-11-25T17:26:26.282Z,99.90
2022-11-25T17:28:58.614Z,99.90
2022-11-25T17:31:31.916Z,99.90
2022-11-25T17:33:59.914Z,99.90
2022-11-25T17:36:27.751Z,99.90
2022-11-25T17:38:55.768Z,99.90
2022-11-25T17:41:25.770Z,99.90
2022-11-25T17:43:54.113Z,99.90
2022-11-25T17:46:22.309Z,99.90
2022-11-25T17:48:50.207Z,99.90
2022-11-25T17:51:18.075Z,99.90
2022-11-25T17:53:47.951Z,99.90
2022-11-25T17:56:23.235Z,99.90
2022-11-25T17:58:52.290Z,99.90
2022-11-25T18:01:20.607Z,99.90
2022-11-25T18:03:53.459Z,99.90
2022-11-25T18:06:21.403Z,99.90
2022-11-25T18:08:49.604Z,99.90
2022-11-25T18:11:18.961Z,99.90
2022-11-25T18:13:47.898Z,99.90
2022-11-25T18:16:18.455Z,99.90
2022-11-25T18:18:46.914Z,99.90
2022-11-25T18:21:14.893Z,99.90
2022-11-25T18:23:43.007Z,99.90
2022-11-25T18:26:12.329Z,99.90
2022-11-25T18:28:40.167Z,99.90
2022-11-25T18:31:08.162Z,99.90
2022-11-25T18:33:36.071Z,99.90
2022-11-25T18:36:04.070Z,99.90
2022-11-25T18:38:32.032Z,99.90
2022-11-25T18:41:01.600Z,99.90
2022-11-25T18:43:29.661Z,99.90
2022-11-25T18:45:58.378Z,99.90
2022-11-25T18:48:27.292Z,99.90
2022-11-25T18:50:56.449Z,99.90
2022-11-25T18:53:24.541Z,99.90
2022-11-25T18:55:52.513Z,99.90
2022-11-25T18:58:22.329Z,99.90
2022-11-25T19:00:51.593Z,99.90
2022-11-25T19:03:23.770Z,99.90
2022-11-25T19:05:54.479Z,99.90
2022-11-25T19:08:22.583Z,99.90
2022-11-25T19:10:50.754Z,99.90
2022-11-25T19:13:21.723Z,99.90
2022-11-25T19:15:49.880Z,99.90
2022-11-25T19:18:23.296Z,99.90
2022-11-25T19:20:51.593Z,99.90
2022-11-25T19:23:28.348Z,99.90
2022-11-25T19:26:00.701Z,99.90
2022-11-25T19:28:29.057Z,99.90
2022-11-25T19:31:03.478Z,99.90
2022-11-25T19:33:33.501Z,99.90
2022-11-25T19:36:01.550Z,99.90
2022-11-25T19:38:31.427Z,99.90
2022-11-25T19:40:59.467Z,99.90
2022-11-25T19:43:27.385Z,99.90
2022-11-25T19:45:56.082Z,99.90
2022-11-25T19:48:29.724Z,99.90
2022-11-25T19:51:00.077Z,99.90
2022-11-25T19:53:33.495Z,99.90
2022-11-25T19:56:04.955Z,99.90
2022-11-25T19:58:33.163Z,99.90
2022-11-25T20:01:02.537Z,99.90
2022-11-25T20:03:31.505Z,99.90
2022-11-25T20:05:59.380Z,99.90
2022-11-25T20:08:28.374Z,99.90
2022-11-25T20:10:56.757Z,99.90
2022-11-25T20:13:26.391Z,99.90
2022-11-25T20:15:55.871Z,99.90
2022-11-25T20:18:24.328Z,99.90
2022-11-25T20:21:00.319Z,99.90
2022-11-25T20:23:30.487Z,99.90
2022-11-25T20:25:58.548Z,99.90
2022-11-25T20:28:28.574Z,99.90
2022-11-25T20:30:59.356Z,99.90
2022-11-25T20:33:27.708Z,99.90
2022-11-25T20:36:11.901Z,99.90
2022-11-25T20:38:42.787Z,99.90
2022-11-25T20:41:11.403Z,99.90
2022-11-25T20:43:41.772Z,99.90
2022-11-25T20:46:14.233Z,99.90
2022-11-25T20:48:42.861Z,99.90
2022-11-25T20:51:14.671Z,99.90
2022-11-25T20:53:45.069Z,99.90
2022-11-25T20:56:17.134Z,99.90
2022-11-25T20:58:45.941Z,99.90
2022-11-25T21:01:19.319Z,99.90
2022-11-25T21:03:47.917Z,99.90
2022-11-25T21:06:20.296Z,99.90
2022-11-25T21:08:49.390Z,99.90
2022-11-25T21:11:17.956Z,99.90
2022-11-25T21:13:46.205Z,99.90
2022-11-25T21:16:14.131Z,99.90
2022-11-25T21:18:42.249Z,99.90
2022-11-25T21:21:16.327Z,99.90
2022-11-25T21:23:45.200Z,99.90
2022-11-25T21:26:20.614Z,99.90
2022-11-25T21:28:50.158Z,99.90
2022-11-25T21:31:22.609Z,99.90
2022-11-25T21:33:52.027Z,99.90
2022-11-25T21:36:21.805Z,99.90
2022-11-25T21:38:50.984Z,99.90
2022-11-25T21:41:19.239Z,99.90
2022-11-25T21:43:48.877Z,99.90
2022-11-25T21:46:20.908Z,99.90
2022-11-25T21:48:48.840Z,99.90
2022-11-25T21:51:24.463Z,99.90
2022-11-25T21:53:53.113Z,99.90
2022-11-25T21:56:25.811Z,99.90
2022-11-25T21:58:53.919Z,99.90
2022-11-25T22:01:22.887Z,99.90
2022-11-25T22:03:51.143Z,99.90
2022-11-25T22:06:29.228Z,99.90
2022-11-25T22:08:57.500Z,99.90
2022-11-25T22:11:32.708Z,99.90
2022-11-25T22:14:03.490Z,99.90
2022-11-25T22:16:33.096Z,99.90
2022-11-25T22:19:01.491Z,99.90
2022-11-25T22:21:29.362Z,99.90
2022-11-25T22:23:57.318Z,99.90
2022-11-25T22:26:28.478Z,99.90
2022-11-25T22:28:56.646Z,99.90
2022-11-25T22:31:25.269Z,99.90
2022-11-25T22:33:54.310Z,99.90
2022-11-25T22:36:36.544Z,99.90
2022-11-25T22:39:25.380Z,99.90
2022-11-25T22:41:59.790Z,99.90
2022-11-25T22:44:47.233Z,99.90
2022-11-25T22:47:23.596Z,99.90
2022-11-25T22:49:52.317Z,99.90
2022-11-25T22:52:25.496Z,99.90
2022-11-25T22:54:53.498Z,99.90
2022-11-25T22:57:21.342Z,99.90
2022-11-25T22:59:49.461Z,99.90
2022-11-25T23:02:22.565Z,99.90
2022-11-25T23:04:55.487Z,99.90
2022-11-25T23:07:24.201Z,99.90
2022-11-25T23:09:52.807Z,99.90
2022-11-25T23:12:20.850Z,99.90
2022-11-25T23:14:48.759Z,99.90
2022-11-25T23:17:19.371Z,99.90
2022-11-25T23:19:47.858Z,99.90
2022-11-25T23:22:16.102Z,99.90
2022-11-25T23:24:45.227Z,99.90
2022-11-25T23:27:13.388Z,99.90
2022-11-25T23:29:41.259Z,99.90
2022-11-25T23:32:17.031Z,99.90
2022-11-25T23:34:45.191Z,99.90
2022-11-25T23:37:14.077Z,99.90
2022-11-25T23:39:42.161Z,99.90
2022-11-25T23:42:19.819Z,99.90
2022-11-25T23:44:47.879Z,99.90
2022-11-25T23:47:18.111Z,99.90
2022-11-25T23:49:46.867Z,99.90
2022-11-25T23:52:16.398Z,99.90
2022-11-25T23:54:45.798Z,99.90
2022-11-25T23:57:15.047Z,99.90
2022-11-25T23:59:43.375Z,99.90
